Time;durP1;ratioP1;P1;durP2;ratioP2;P2;SDS_P1;SDS_P2;PMS_P1;PMS_P2;Temp;Humidity;BMP_temperature;BMP_pressure;BME280_temperature;BME280_humidity;BME280_pressure;Samples;Min_cycle;Max_cycle;Signal;HPM_P1;HPM_P2
2022/05/03 00:00:17;;;;;;;6.20;4.63;;;9.10;99.90;;;;;;5075744;28;20124;-67
2022/05/03 00:03:03;;;;;;;7.28;5.00;;;9.10;99.90;;;;;;5075416;28;20123;-67
2022/05/03 00:05:50;;;;;;;6.85;4.82;;;9.10;99.90;;;;;;5075514;28;20377;-65
2022/05/03 00:08:20;;;;;;;8.65;4.88;;;9.10;99.90;;;;;;5075579;28;20461;-67
2022/05/03 00:11:00;;;;;;;6.90;4.97;;;9.00;99.90;;;;;;5076051;28;20491;-67
2022/05/03 00:13:36;;;;;;;5.72;4.30;;;9.10;99.90;;;;;;5076060;28;20041;-67
2022/05/03 00:16:02;;;;;;;8.15;5.20;;;9.00;99.90;;;;;;5058888;28;20044;-66
2022/05/03 00:18:28;;;;;;;8.90;4.90;;;9.00;99.90;;;;;;5075073;28;20067;-67
2022/05/03 00:20:55;;;;;;;6.10;4.40;;;8.90;99.90;;;;;;5075110;28;20136;-67
2022/05/03 00:23:22;;;;;;;8.45;5.43;;;8.90;99.90;;;;;;5075018;28;20053;-66
2022/05/03 00:25:52;;;;;;;7.30;5.15;;;8.90;99.90;;;;;;5075273;28;20079;-67
2022/05/03 00:28:19;;;;;;;7.50;5.00;;;8.80;99.90;;;;;;5075045;28;20072;-67
2022/05/03 00:30:46;;;;;;;8.48;4.95;;;8.80;99.90;;;;;;5074910;28;20024;-67
2022/05/03 00:33:12;;;;;;;7.13;4.65;;;8.80;99.90;;;;;;5075134;28;20076;-67
2022/05/03 00:35:39;;;;;;;7.50;5.10;;;8.80;99.90;;;;;;5075381;28;20131;-67
2022/05/03 00:38:05;;;;;;;8.15;5.03;;;8.70;99.90;;;;;;5058421;28;20086;-68
2022/05/03 00:40:33;;;;;;;8.95;5.18;;;8.60;99.90;;;;;;5074778;28;20377;-67
2022/05/03 00:43:14;;;;;;;6.55;5.05;;;8.60;99.90;;;;;;5075062;28;20040;-67
2022/05/03 00:45:46;;;;;;;7.15;5.15;;;8.50;99.90;;;;;;5074752;28;20359;-66
2022/05/03 00:48:43;;;;;;;7.25;4.90;;;8.50;99.90;;;;;;5074383;28;20070;-67
2022/05/03 00:51:18;;;;;;;8.60;5.10;;;8.60;99.90;;;;;;5074866;28;20441;-67
2022/05/03 00:54:10;;;;;;;8.98;5.85;;;8.60;99.90;;;;;;5074724;28;20043;-68
2022/05/03 00:56:48;;;;;;;8.38;5.20;;;8.40;99.90;;;;;;5074786;28;20151;-67
2022/05/03 00:59:34;;;;;;;7.43;5.07;;;8.30;99.90;;;;;;5074859;28;20056;-67
2022/05/03 01:02:07;;;;;;;8.95;5.43;;;8.20;99.90;;;;;;5074566;28;20047;-67
2022/05/03 01:04:42;;;;;;;7.82;5.80;;;8.10;99.90;;;;;;5074923;28;20322;-67
2022/05/03 01:07:13;;;;;;;7.20;5.53;;;8.00;99.90;;;;;;5074610;28;20036;-68
2022/05/03 01:10:00;;;;;;;8.07;6.38;;;8.00;99.90;;;;;;5074761;28;20055;-67
2022/05/03 01:12:39;;;;;;;7.60;6.05;;;8.00;99.90;;;;;;5054945;28;20129;-68
2022/05/03 01:15:10;;;;;;;8.30;6.00;;;7.90;99.90;;;;;;5054392;28;20090;-66
2022/05/03 01:17:54;;;;;;;9.43;5.75;;;7.90;99.90;;;;;;5053914;28;20049;-67
2022/05/03 01:20:30;;;;;;;8.68;5.97;;;7.90;99.90;;;;;;5060812;28;20044;-66
2022/05/03 01:22:58;;;;;;;10.13;6.40;;;7.90;99.90;;;;;;5074362;28;20048;-67
2022/05/03 01:25:38;;;;;;;7.18;5.22;;;7.90;99.90;;;;;;5074414;28;20052;-67
2022/05/03 01:28:10;;;;;;;8.25;5.93;;;7.90;99.90;;;;;;5057300;28;20040;-67
2022/05/03 01:30:37;;;;;;;8.93;5.90;;;7.90;99.90;;;;;;5074196;28;20408;-68
2022/05/03 01:33:07;;;;;;;8.85;6.13;;;7.90;99.90;;;;;;5074319;28;20062;-66
2022/05/03 01:35:37;;;;;;;7.47;5.63;;;7.90;99.90;;;;;;5074193;28;20047;-66
2022/05/03 01:38:28;;;;;;;9.68;5.55;;;8.00;99.90;;;;;;5073836;28;20437;-66
2022/05/03 01:41:03;;;;;;;8.30;5.53;;;8.00;99.90;;;;;;5074047;28;20040;-67
2022/05/03 01:43:51;;;;;;;7.90;5.63;;;8.00;99.90;;;;;;5074021;28;20075;-67
2022/05/03 01:46:23;;;;;;;9.05;5.90;;;8.00;99.90;;;;;;5074261;28;20040;-67
2022/05/03 01:51:52;;;;;;;11.10;6.60;;;7.90;99.90;;;;;;5073486;28;20051;-66
2022/05/03 01:54:56;;;;;;;9.95;6.72;;;7.90;99.90;;;;;;5057397;28;20473;-67
2022/05/03 01:57:52;;;;;;;8.35;6.40;;;7.80;99.90;;;;;;5073516;28;20373;-67
2022/05/03 02:00:21;;;;;;;8.90;6.40;;;7.70;99.90;;;;;;5073590;28;20119;-67
2022/05/03 02:03:25;;;;;;;9.07;6.57;;;7.70;99.90;;;;;;5073420;28;20048;-68
2022/05/03 02:06:00;;;;;;;8.90;6.43;;;7.70;99.90;;;;;;5073308;28;20044;-68
2022/05/03 02:09:06;;;;;;;8.85;6.18;;;7.70;99.90;;;;;;5073347;28;20063;-67
2022/05/03 02:12:15;;;;;;;9.77;6.38;;;7.70;99.90;;;;;;5053179;28;20040;-67
2022/05/03 02:14:55;;;;;;;9.07;6.20;;;7.60;99.90;;;;;;5073433;28;20040;-67
2022/05/03 02:17:32;;;;;;;8.73;5.88;;;7.60;99.90;;;;;;5073843;28;20222;-67
2022/05/03 02:20:31;;;;;;;10.15;6.25;;;7.70;99.90;;;;;;5072995;28;20052;-67
2022/05/03 02:23:24;;;;;;;7.88;6.05;;;7.70;99.90;;;;;;5073098;28;20441;-67
2022/05/03 02:26:02;;;;;;;8.05;6.45;;;7.70;99.90;;;;;;5073147;28;20080;-67
2022/05/03 02:28:43;;;;;;;8.75;6.60;;;7.70;99.90;;;;;;5072721;28;20040;-67
2022/05/03 02:31:23;;;;;;;8.77;6.80;;;7.70;99.90;;;;;;5072961;28;20194;-68
2022/05/03 02:34:11;;;;;;;9.13;6.57;;;7.70;99.90;;;;;;5073378;28;20426;-67
2022/05/03 02:36:53;;;;;;;7.70;5.50;;;7.70;99.90;;;;;;5072952;28;20306;-67
2022/05/03 02:39:24;;;;;;;8.27;6.00;;;7.70;99.90;;;;;;5073112;28;20097;-67
2022/05/03 02:41:54;;;;;;;9.40;6.75;;;7.70;99.90;;;;;;5072881;28;20052;-67
2022/05/03 02:44:21;;;;;;;8.25;6.30;;;7.70;99.90;;;;;;5072874;28;20134;-67
2022/05/03 02:47:05;;;;;;;8.75;7.30;;;7.70;99.90;;;;;;5072331;28;20369;-68
2022/05/03 02:49:37;;;;;;;10.13;6.53;;;7.70;99.90;;;;;;5056098;28;20043;-67
2022/05/03 02:52:20;;;;;;;8.77;7.25;;;7.70;99.90;;;;;;5072469;28;20282;-67
2022/05/03 02:55:13;;;;;;;9.70;7.07;;;7.60;99.90;;;;;;5072728;28;20040;-68
2022/05/03 02:58:09;;;;;;;9.70;6.93;;;7.60;99.90;;;;;;5072264;28;20056;-67
2022/05/03 03:04:32;;;;;;;9.10;6.63;;;7.60;99.90;;;;;;5051199;28;20064;-66
2022/05/03 03:06:59;;;;;;;10.45;6.70;;;7.60;99.90;;;;;;5072022;28;20429;-68
2022/05/03 03:09:49;;;;;;;8.38;6.50;;;7.60;99.90;;;;;;5056146;28;20040;-68
2022/05/03 03:12:35;;;;;;;9.18;6.78;;;7.50;99.90;;;;;;5046523;28;20057;-68
2022/05/03 03:15:07;;;;;;;9.75;7.18;;;7.50;99.90;;;;;;5052013;28;20440;-67
2022/05/03 03:17:38;;;;;;;10.60;6.18;;;7.50;99.90;;;;;;5051847;28;20056;-67
2022/05/03 03:20:06;;;;;;;9.15;6.78;;;7.50;99.90;;;;;;5055314;28;20052;-67
2022/05/03 03:22:37;;;;;;;9.02;7.53;;;7.40;99.90;;;;;;5072270;28;20074;-67
2022/05/03 03:25:04;;;;;;;9.77;7.32;;;7.40;99.90;;;;;;5072002;28;20504;-67
2022/05/03 03:27:33;;;;;;;10.25;6.97;;;7.40;99.90;;;;;;5055491;28;20136;-66
2022/05/03 03:30:02;;;;;;;8.88;7.32;;;7.40;99.90;;;;;;5071908;28;20048;-67
2022/05/03 03:32:28;;;;;;;9.25;7.35;;;7.40;99.90;;;;;;5073155;28;20044;-68
2022/05/03 03:34:55;;;;;;;8.63;6.75;;;7.40;99.90;;;;;;5072104;28;20465;-68
2022/05/03 03:37:24;;;;;;;10.57;7.15;;;7.40;99.90;;;;;;5055081;28;20161;-67
2022/05/03 03:39:49;;;;;;;8.73;6.55;;;7.40;99.90;;;;;;5071771;28;20048;-68
2022/05/03 03:42:15;;;;;;;10.32;7.85;;;7.40;99.90;;;;;;5072215;28;20070;-67
2022/05/03 03:44:41;;;;;;;8.90;7.38;;;7.40;99.90;;;;;;5071891;28;20048;-68
2022/05/03 03:47:07;;;;;;;8.90;6.70;;;7.40;99.90;;;;;;5071467;28;20047;-69
2022/05/03 03:49:34;;;;;;;10.13;8.15;;;7.40;99.90;;;;;;5072154;28;20094;-68
2022/05/03 03:52:01;;;;;;;9.82;7.78;;;7.30;99.90;;;;;;5071822;28;20074;-68
2022/05/03 03:54:27;;;;;;;11.45;8.20;;;7.30;99.90;;;;;;5072049;28;20055;-68
2022/05/03 03:56:54;;;;;;;10.35;7.80;;;7.30;99.90;;;;;;5071494;28;20127;-68
2022/05/03 03:59:20;;;;;;;10.30;7.55;;;7.30;99.90;;;;;;5071970;28;20044;-69
2022/05/03 04:01:49;;;;;;;9.55;7.93;;;7.20;99.90;;;;;;5071610;28;20078;-67
2022/05/03 04:04:16;;;;;;;11.07;7.72;;;7.20;99.90;;;;;;5055186;28;20521;-69
2022/05/03 04:06:42;;;;;;;10.63;8.18;;;7.20;99.90;;;;;;5071757;28;20089;-67
2022/05/03 04:09:08;;;;;;;10.73;8.07;;;7.20;99.90;;;;;;5071792;28;20407;-67
2022/05/03 04:11:47;;;;;;;12.00;8.68;;;7.20;99.90;;;;;;5071898;28;20042;-67
2022/05/03 04:14:13;;;;;;;10.35;8.00;;;7.20;99.90;;;;;;5055282;28;20493;-67
2022/05/03 04:16:39;;;;;;;11.40;9.00;;;7.20;99.90;;;;;;5071225;28;20126;-66
2022/05/03 04:19:05;;;;;;;13.68;9.10;;;7.20;99.90;;;;;;5072277;28;20044;-67
2022/05/03 04:21:31;;;;;;;11.88;8.55;;;7.20;99.90;;;;;;5071893;28;20120;-66
2022/05/03 04:23:56;;;;;;;12.43;9.40;;;7.20;99.90;;;;;;5071329;28;20210;-69
2022/05/03 04:26:22;;;;;;;13.15;9.80;;;7.20;99.90;;;;;;5071425;28;20137;-67
2022/05/03 04:28:48;;;;;;;10.98;8.68;;;7.20;99.90;;;;;;5075089;28;20033;-67
2022/05/03 04:31:13;;;;;;;11.38;8.95;;;7.30;99.90;;;;;;5074835;28;20033;-67
2022/05/03 04:33:39;;;;;;;13.25;9.27;;;7.20;99.90;;;;;;5075212;28;20040;-67
2022/05/03 04:36:05;;;;;;;14.13;9.30;;;7.30;99.90;;;;;;5075253;28;20044;-67
2022/05/03 04:38:31;;;;;;;15.77;10.10;;;7.40;99.90;;;;;;5075199;28;20080;-67
2022/05/03 04:41:01;;;;;;;16.73;9.45;;;7.60;99.90;;;;;;5074810;28;20036;-67
2022/05/03 04:43:26;;;;;;;13.15;8.98;;;7.80;99.90;;;;;;5075112;28;20471;-67
2022/05/03 04:45:53;;;;;;;11.93;9.23;;;8.00;99.90;;;;;;5054705;28;20048;-67
2022/05/03 04:48:20;;;;;;;13.77;9.27;;;8.20;99.90;;;;;;5057307;28;20350;-67
2022/05/03 04:50:46;;;;;;;13.93;9.48;;;8.30;99.90;;;;;;5060022;28;20112;-68
2022/05/03 04:53:12;;;;;;;16.45;10.05;;;8.50;99.90;;;;;;5038136;28;20036;-67
2022/05/03 04:55:39;;;;;;;14.57;10.13;;;8.70;99.90;;;;;;5054395;28;20124;-67
2022/05/03 04:58:06;;;;;;;15.95;9.80;;;8.90;99.90;;;;;;5054056;28;20079;-67
2022/05/03 05:00:32;;;;;;;17.08;9.90;;;8.90;99.90;;;;;;5055207;28;20094;-67
2022/05/03 05:02:57;;;;;;;21.75;10.60;;;9.00;99.90;;;;;;5054046;28;20048;-68
2022/05/03 05:05:23;;;;;;;22.42;10.98;;;9.10;99.90;;;;;;5054105;28;20128;-67
2022/05/03 05:07:49;;;;;;;23.08;10.40;;;9.20;99.90;;;;;;5053425;28;20409;-67
2022/05/03 05:10:23;;;;;;;22.15;12.52;;;9.60;99.90;;;;;;5055543;28;20170;-67
2022/05/03 05:12:49;;;;;;;;;;;10.10;99.90;;;;;;5054784;28;20413;-67
2022/05/03 05:15:14;;;;;;;20.98;10.65;;;10.40;99.90;;;;;;5037152;28;20058;-68
2022/05/03 05:17:40;;;;;;;16.70;10.30;;;10.80;99.90;;;;;;5053448;28;20041;-67
2022/05/03 05:20:06;;;;;;;17.85;10.15;;;11.20;99.90;;;;;;5039971;28;20044;-66
2022/05/03 05:22:32;;;;;;;13.70;10.25;;;11.70;99.90;;;;;;5054161;28;20178;-67
2022/05/03 05:24:58;;;;;;;16.00;9.93;;;11.90;99.90;;;;;;5053367;28;20415;-68
2022/05/03 05:27:24;;;;;;;14.20;8.75;;;12.20;99.90;;;;;;5056227;28;20041;-67
2022/05/03 05:29:49;;;;;;;15.77;9.30;;;12.30;99.90;;;;;;5054433;28;20129;-69
2022/05/03 05:32:15;;;;;;;13.43;9.00;;;12.60;99.90;;;;;;5074068;28;20042;-67
2022/05/03 05:34:42;;;;;;;14.30;9.77;;;13.00;99.90;;;;;;5074284;28;20044;-65
2022/05/03 05:37:07;;;;;;;12.05;8.90;;;13.40;99.90;;;;;;5073999;28;20430;-69
2022/05/03 05:39:33;;;;;;;13.63;9.32;;;13.90;99.90;;;;;;5067296;28;20127;-67
2022/05/03 05:42:01;;;;;;;15.15;10.98;;;14.10;99.90;;;;;;5069812;28;20427;-69
2022/05/03 05:44:27;;;;;;;14.50;9.70;;;14.10;99.90;;;;;;5069088;28;20037;-67
2022/05/03 05:46:53;;;;;;;16.02;10.23;;;14.10;99.90;;;;;;5055794;28;20036;-67
2022/05/03 05:49:22;;;;;;;13.68;9.52;;;14.00;99.90;;;;;;5038339;28;20024;-70
2022/05/03 05:51:48;;;;;;;13.45;10.15;;;13.60;99.90;;;;;;5072312;28;20078;-72
2022/05/03 05:54:17;;;;;;;15.77;10.18;;;13.40;99.90;;;;;;5057142;28;20068;-69
2022/05/03 05:56:44;;;;;;;14.23;9.93;;;13.30;99.90;;;;;;5074908;28;20054;-69
2022/05/03 05:59:10;;;;;;;13.73;10.73;;;13.10;99.90;;;;;;5073838;28;20048;-69
2022/05/03 06:01:40;;;;;;;14.77;10.88;;;13.00;99.90;;;;;;5074231;28;20059;-67
2022/05/03 06:04:06;;;;;;;14.93;11.27;;;12.90;99.90;;;;;;5074691;28;20106;-66
2022/05/03 06:06:32;;;;;;;15.50;11.70;;;12.70;99.90;;;;;;5056764;28;20029;-67
2022/05/03 06:08:59;;;;;;;19.90;12.85;;;12.60;99.90;;;;;;5054813;28;20063;-67
2022/05/03 06:11:25;;;;;;;22.70;13.30;;;12.50;99.90;;;;;;5066183;28;20098;-66
2022/05/03 06:13:56;;;;;;;18.60;12.45;;;12.40;99.90;;;;;;5066707;28;20457;-67
2022/05/03 06:16:23;;;;;;;21.50;13.70;;;12.30;99.90;;;;;;5052838;28;20108;-67
2022/05/03 06:18:49;;;;;;;22.80;14.00;;;12.10;99.90;;;;;;5054731;28;20356;-66
2022/05/03 06:21:14;;;;;;;23.13;15.75;;;12.00;99.90;;;;;;5064437;28;20445;-66
2022/05/03 06:23:40;;;;;;;25.98;15.40;;;12.00;99.90;;;;;;5073061;28;20091;-67
2022/05/03 06:26:09;;;;;;;24.77;16.05;;;11.90;99.90;;;;;;5055738;28;20041;-66
2022/05/03 06:28:35;;;;;;;25.40;17.15;;;12.00;99.90;;;;;;5053383;28;20484;-67
2022/05/03 06:31:01;;;;;;;24.45;17.10;;;11.90;99.90;;;;;;5062438;28;20024;-66
2022/05/03 06:33:27;;;;;;;27.05;17.95;;;11.90;99.90;;;;;;5056445;28;20532;-66
2022/05/03 06:35:52;;;;;;;26.83;17.52;;;11.80;99.90;;;;;;5056594;28;20037;-66
2022/05/03 06:38:18;;;;;;;24.73;17.13;;;11.70;99.90;;;;;;5073143;28;20059;-67
2022/05/03 06:40:44;;;;;;;25.48;17.23;;;11.70;99.90;;;;;;5072693;28;20129;-66
2022/05/03 06:43:09;;;;;;;31.20;20.45;;;11.70;99.90;;;;;;5073287;28;20048;-66
2022/05/03 06:45:35;;;;;;;27.83;19.40;;;11.70;99.90;;;;;;5073047;28;20410;-66
2022/05/03 06:48:01;;;;;;;27.40;16.95;;;11.60;99.90;;;;;;5072807;28;20427;-66
2022/05/03 06:50:29;;;;;;;27.63;16.98;;;11.50;99.90;;;;;;5071771;28;20037;-66
2022/05/03 06:52:55;;;;;;;25.98;17.75;;;11.50;99.90;;;;;;5056233;28;20047;-67
2022/05/03 06:55:21;;;;;;;28.13;19.55;;;11.50;99.90;;;;;;5055689;28;20140;-66
2022/05/03 06:57:48;;;;;;;28.67;19.65;;;11.40;99.90;;;;;;5072896;28;20048;-67
2022/05/03 07:00:14;;;;;;;30.98;21.83;;;11.40;99.90;;;;;;5072187;28;20087;-66
2022/05/03 07:02:41;;;;;;;35.60;22.77;;;11.40;99.90;;;;;;5072469;28;20048;-67
2022/05/03 07:05:10;;;;;;;30.50;19.27;;;11.40;99.90;;;;;;5072446;28;20068;-66
2022/05/03 07:07:36;;;;;;;30.80;19.80;;;11.30;99.90;;;;;;5072507;28;20079;-67
2022/05/03 07:10:12;;;;;;;33.90;22.52;;;11.30;99.90;;;;;;5055821;28;20068;-70
2022/05/03 07:12:38;;;;;;;40.85;23.50;;;11.40;99.90;;;;;;5072458;28;20103;-67
2022/05/03 07:15:04;;;;;;;41.55;24.27;;;11.30;99.90;;;;;;5072452;28;20104;-67
2022/05/03 07:22:59;;;;;;;46.05;25.83;;;11.30;99.90;;;;;;5072095;28;20139;-68
2022/05/03 07:25:25;;;;;;;41.22;24.83;;;11.40;99.90;;;;;;5051781;28;20174;-66
2022/05/03 07:27:51;;;;;;;44.33;26.25;;;11.60;99.90;;;;;;5053314;28;20041;-66
2022/05/03 07:30:18;;;;;;;47.03;27.45;;;11.60;99.90;;;;;;5038356;28;20032;-66
2022/05/03 07:32:45;;;;;;;60.97;29.75;;;11.60;99.90;;;;;;5072068;28;20047;-66
2022/05/03 07:35:12;;;;;;;58.67;29.95;;;11.60;99.90;;;;;;5072222;28;20048;-68
2022/05/03 07:37:39;;;;;;;63.13;30.13;;;11.50;99.90;;;;;;5072172;28;20403;-69
2022/05/03 07:40:06;;;;;;;72.47;33.28;;;11.50;99.90;;;;;;5071799;28;20044;-67
2022/05/03 07:42:32;;;;;;;74.00;33.33;;;11.60;99.90;;;;;;5072732;28;20059;-67
2022/05/03 07:44:58;;;;;;;67.03;32.58;;;11.70;99.90;;;;;;5072241;28;20462;-67
2022/05/03 07:47:24;;;;;;;64.75;31.20;;;11.90;99.90;;;;;;5072087;28;20557;-66
2022/05/03 07:49:50;;;;;;;64.78;29.85;;;11.80;99.90;;;;;;5071917;28;20106;-68
2022/05/03 07:52:15;;;;;;;65.07;32.08;;;11.80;99.90;;;;;;5055193;28;20044;-68
2022/05/03 07:54:42;;;;;;;60.67;31.27;;;11.80;99.90;;;;;;5072138;28;20040;-68
2022/05/03 07:57:09;;;;;;;59.63;29.15;;;11.80;99.90;;;;;;5071961;28;20041;-68
2022/05/03 07:59:38;;;;;;;57.45;28.00;;;11.90;99.90;;;;;;5072898;28;20408;-69
2022/05/03 08:02:04;;;;;;;65.03;31.25;;;12.00;99.90;;;;;;5074167;28;20098;-67
2022/05/03 08:04:29;;;;;;;69.22;33.03;;;11.90;99.90;;;;;;5059277;28;20040;-68
2022/05/03 08:06:55;;;;;;;80.85;33.92;;;11.80;99.90;;;;;;5075846;28;20131;-67
2022/05/03 08:09:20;;;;;;;75.43;33.38;;;11.70;99.90;;;;;;5075412;28;20519;-67
2022/05/03 08:11:46;;;;;;;70.07;31.27;;;11.80;99.90;;;;;;5059313;28;20040;-67
2022/05/03 08:14:12;;;;;;;74.38;33.30;;;11.60;99.90;;;;;;5075654;28;20504;-68
2022/05/03 08:16:38;;;;;;;65.28;30.83;;;11.60;99.90;;;;;;5075489;28;20036;-68
2022/05/03 08:19:05;;;;;;;60.97;29.60;;;11.40;99.90;;;;;;5075520;28;20193;-68
2022/05/03 08:21:32;;;;;;;59.38;30.48;;;11.30;99.90;;;;;;5058255;28;20070;-67
2022/05/03 08:23:59;;;;;;;56.05;29.42;;;11.40;99.90;;;;;;5075124;28;20381;-68
2022/05/03 08:26:25;;;;;;;52.80;29.15;;;11.50;99.90;;;;;;5075302;28;20086;-68
2022/05/03 08:28:50;;;;;;;55.63;29.17;;;11.70;99.90;;;;;;5075268;28;20072;-68
2022/05/03 08:31:16;;;;;;;48.08;28.77;;;11.60;99.90;;;;;;5075033;28;20033;-68
2022/05/03 08:33:44;;;;;;;52.85;27.20;;;11.70;99.90;;;;;;5075337;28;20033;-68
2022/05/03 08:36:10;;;;;;;44.40;25.60;;;11.70;99.90;;;;;;5075282;28;20059;-68
2022/05/03 08:44:04;;;;;;;28.02;19.08;;;11.70;99.90;;;;;;5075312;28;20109;-67
2022/05/03 08:46:30;;;;;;;29.95;18.60;;;11.70;99.90;;;;;;5075249;28;20356;-69
2022/05/03 08:49:02;;;;;;;30.25;17.38;;;11.60;99.90;;;;;;5074996;28;20032;-68
2022/05/03 08:51:29;;;;;;;28.33;18.13;;;11.40;99.90;;;;;;5075325;28;20043;-67
2022/05/03 08:53:56;;;;;;;26.27;15.63;;;11.30;99.90;;;;;;5075994;28;20496;-67
2022/05/03 08:56:22;;;;;;;25.45;15.80;;;11.40;99.90;;;;;;5074908;28;20078;-67
2022/05/03 08:58:47;;;;;;;23.25;15.70;;;11.50;99.90;;;;;;5075051;28;20067;-67
2022/05/03 09:01:13;;;;;;;23.58;14.63;;;11.50;99.90;;;;;;5057780;28;20060;-68
2022/05/03 09:03:39;;;;;;;18.50;12.95;;;11.50;99.90;;;;;;5075126;28;20048;-67
2022/05/03 09:06:06;;;;;;;16.98;11.52;;;11.80;99.90;;;;;;5058017;28;20350;-67
2022/05/03 09:08:33;;;;;;;18.38;10.45;;;11.90;99.90;;;;;;5074995;28;20362;-67
2022/05/03 09:10:59;;;;;;;19.83;12.02;;;12.10;99.90;;;;;;5074226;28;20041;-68
2022/05/03 09:13:28;;;;;;;18.55;11.93;;;12.10;99.90;;;;;;5074281;28;20476;-69
2022/05/03 09:16:09;;;;;;;20.10;11.00;;;12.00;99.90;;;;;;5074595;28;20127;-67
2022/05/03 09:18:36;;;;;;;17.52;10.23;;;12.10;99.90;;;;;;5058275;28;20040;-67
2022/05/03 09:24:01;;;;;;;19.60;10.57;;;12.20;99.90;;;;;;5054778;28;20136;-67
2022/05/03 09:26:28;;;;;;;18.52;11.05;;;12.20;99.90;;;;;;5054822;28;20045;-67
2022/05/03 09:29:15;;;;;;;16.98;10.07;;;12.00;99.90;;;;;;5054591;28;20052;-68
2022/05/03 09:31:48;;;;;;;17.02;8.52;;;12.00;99.90;;;;;;5067452;28;20125;-69
2022/05/03 09:34:18;;;;;;;14.57;8.93;;;12.20;99.90;;;;;;5074369;28;20045;-68
2022/05/03 09:36:49;;;;;;;14.52;8.60;;;12.20;99.90;;;;;;5074436;28;20040;-67
2022/05/03 09:39:28;;;;;;;15.13;8.00;;;12.20;99.90;;;;;;5073742;28;20079;-68
2022/05/03 09:42:13;;;;;;;15.55;7.95;;;12.30;99.90;;;;;;5074070;28;20469;-67
2022/05/03 09:44:54;;;;;;;12.95;7.57;;;12.20;99.90;;;;;;5057541;28;20048;-67
2022/05/03 09:47:21;;;;;;;12.05;6.85;;;12.10;99.90;;;;;;5057354;28;20044;-67
2022/05/03 09:49:47;;;;;;;12.00;7.60;;;12.20;99.90;;;;;;5073806;28;20485;-67
2022/05/03 09:52:29;;;;;;;14.15;7.00;;;12.20;99.90;;;;;;5073540;28;20043;-67
2022/05/03 09:55:04;;;;;;;12.30;6.07;;;12.20;99.90;;;;;;5057088;28;20446;-67
2022/05/03 09:57:32;;;;;;;12.02;6.32;;;12.10;99.90;;;;;;5073819;28;20055;-67
2022/05/03 09:59:58;;;;;;;11.77;6.00;;;12.10;99.90;;;;;;5073248;28;20059;-67
2022/05/03 10:02:26;;;;;;;9.60;5.95;;;12.10;99.90;;;;;;5064646;28;20041;-67
2022/05/03 10:04:53;;;;;;;11.43;5.93;;;12.20;99.90;;;;;;5055701;28;20350;-69
2022/05/03 10:07:24;;;;;;;13.48;6.35;;;12.20;99.90;;;;;;5053158;28;20535;-69
2022/05/03 10:09:50;;;;;;;11.18;6.15;;;12.20;99.90;;;;;;5054023;28;20037;-69
2022/05/03 10:12:18;;;;;;;10.20;5.80;;;12.10;99.90;;;;;;5057110;28;20025;-69
2022/05/03 10:14:46;;;;;;;11.75;6.55;;;12.20;99.90;;;;;;5053545;28;20052;-67
2022/05/03 10:20:38;;;;;;;18.52;7.30;;;12.10;99.90;;;;;;5053336;28;20049;-67
2022/05/03 10:23:16;;;;;;;16.20;6.57;;;12.10;99.90;;;;;;5048528;28;20373;-67
2022/05/03 10:25:42;;;;;;;15.57;6.40;;;12.00;99.90;;;;;;5052205;28;20049;-67
2022/05/03 10:28:08;;;;;;;16.05;6.35;;;12.00;99.90;;;;;;5053518;28;20052;-69
2022/05/03 10:30:38;;;;;;;11.57;5.88;;;11.90;99.90;;;;;;5056577;28;20115;-68
2022/05/03 10:33:19;;;;;;;12.38;6.80;;;12.10;99.90;;;;;;5074038;28;20112;-67
2022/05/03 10:35:47;;;;;;;15.45;6.05;;;12.10;99.90;;;;;;5073621;28;20414;-67
2022/05/03 10:38:14;;;;;;;15.27;5.95;;;12.30;99.90;;;;;;5074331;28;20115;-67
2022/05/03 10:40:47;;;;;;;15.95;6.70;;;12.20;99.90;;;;;;5072966;28;20072;-66
2022/05/03 10:43:27;;;;;;;13.70;6.70;;;12.20;99.90;;;;;;5074138;28;20049;-66
2022/05/03 10:45:56;;;;;;;16.98;6.88;;;12.10;99.90;;;;;;5055862;28;20648;-68
2022/05/03 10:48:30;;;;;;;17.00;6.28;;;12.10;99.90;;;;;;5056036;28;20041;-68
2022/05/03 10:51:01;;;;;;;16.98;6.40;;;12.10;99.90;;;;;;5056259;28;20040;-68
2022/05/03 10:53:38;;;;;;;15.52;6.57;;;12.00;99.90;;;;;;5056757;28;20056;-68
2022/05/03 10:56:12;;;;;;;15.95;6.57;;;11.90;99.90;;;;;;5039771;28;20052;-67
2022/05/03 10:59:02;;;;;;;19.38;6.03;;;12.00;99.90;;;;;;5058941;28;20045;-68
2022/05/03 11:01:27;;;;;;;15.85;5.97;;;12.00;99.90;;;;;;5064469;28;20347;-65
2022/05/03 11:03:54;;;;;;;18.58;6.95;;;12.00;99.90;;;;;;5073431;28;20086;-66
2022/05/03 11:06:22;;;;;;;14.85;6.35;;;12.00;99.90;;;;;;5073142;28;20389;-66
2022/05/03 11:11:42;;;;;;;16.90;6.88;;;12.00;99.90;;;;;;5064344;28;20098;-65
2022/05/03 11:14:18;;;;;;;15.05;6.57;;;12.10;99.90;;;;;;5073393;28;20076;-68
2022/05/03 11:17:05;;;;;;;15.13;5.88;;;12.00;99.90;;;;;;5073325;28;20047;-67
2022/05/03 11:19:36;;;;;;;18.15;6.60;;;12.10;99.90;;;;;;5072866;28;20092;-66
2022/05/03 11:22:08;;;;;;;16.27;6.78;;;12.10;99.90;;;;;;5066694;28;20092;-68
2022/05/03 11:24:33;;;;;;;19.13;6.55;;;12.20;99.90;;;;;;5053726;28;20075;-68
2022/05/03 11:27:05;;;;;;;21.63;6.50;;;12.30;99.90;;;;;;5052880;28;20052;-67
2022/05/03 11:29:48;;;;;;;19.98;6.60;;;12.20;99.90;;;;;;5035981;28;20124;-67
2022/05/03 11:32:34;;;;;;;14.77;5.60;;;12.10;99.90;;;;;;5056483;28;20047;-67
2022/05/03 11:35:30;;;;;;;13.60;5.38;;;12.10;99.90;;;;;;5058635;28;20051;-66
2022/05/03 11:37:56;;;;;;;15.25;5.50;;;12.30;99.90;;;;;;5052952;28;20049;-67
2022/05/03 11:40:24;;;;;;;17.40;5.57;;;12.50;99.90;;;;;;5055202;28;20044;-67
2022/05/03 11:42:51;;;;;;;18.42;5.45;;;12.60;99.90;;;;;;5055972;28;20378;-66
2022/05/03 11:45:18;;;;;;;11.57;4.93;;;12.60;99.90;;;;;;5072844;28;20041;-67
2022/05/03 11:47:47;;;;;;;19.05;5.60;;;12.70;99.90;;;;;;5073793;28;20037;-66
2022/05/03 11:55:58;;;;;;;13.57;4.95;;;12.70;99.90;;;;;;5072099;28;20454;-66
2022/05/03 11:56:01;;;;;;;13.32;4.60;;;13.00;99.90;;;;;;5054023;28;20045;-67
2022/05/03 11:58:31;;;;;;;15.07;5.18;;;13.30;99.90;;;;;;5053707;28;20102;-66
2022/05/03 12:00:57;;;;;;;9.85;4.78;;;13.20;99.90;;;;;;5059571;28;20036;-67
2022/05/03 12:03:23;;;;;;;11.75;4.90;;;13.50;99.90;;;;;;5072349;28;20117;-66
2022/05/03 12:06:04;;;;;;;14.93;5.10;;;13.50;99.90;;;;;;5072514;28;20124;-65
2022/05/03 12:08:31;;;;;;;12.23;4.90;;;13.50;99.90;;;;;;5073644;28;20037;-66
2022/05/03 12:10:57;;;;;;;13.18;4.88;;;13.60;99.90;;;;;;5072999;28;20102;-67
2022/05/03 12:13:22;;;;;;;13.70;4.18;;;13.80;99.90;;;;;;5073418;28;20044;-66
2022/05/03 12:16:06;;;;;;;15.90;4.53;;;13.90;99.90;;;;;;5073654;28;20525;-66
2022/05/03 12:18:40;;;;;;;12.75;4.82;;;14.00;99.90;;;;;;5073244;28;20358;-65
2022/05/03 12:21:16;;;;;;;13.18;4.40;;;14.00;99.90;;;;;;5072526;28;20466;-66
2022/05/03 12:23:48;;;;;;;19.25;5.13;;;14.20;99.90;;;;;;5053021;28;20063;-68
2022/05/03 12:26:16;;;;;;;15.02;4.80;;;14.10;99.90;;;;;;5053228;28;20037;-66
2022/05/03 12:28:47;;;;;;;13.43;4.13;;;14.10;99.90;;;;;;5052174;28;20051;-66
2022/05/03 12:31:14;;;;;;;12.52;4.03;;;14.20;99.90;;;;;;5060135;28;20045;-67
2022/05/03 12:33:42;;;;;;;13.75;4.70;;;14.20;99.90;;;;;;5072199;28;20048;-67
2022/05/03 12:36:09;;;;;;;12.13;3.83;;;14.10;99.90;;;;;;5072136;28;20457;-66
2022/05/03 12:38:47;;;;;;;11.50;3.65;;;14.10;99.90;;;;;;5072180;28;20046;-67
2022/05/03 12:41:22;;;;;;;11.55;4.20;;;14.10;99.90;;;;;;5055108;28;20032;-67
2022/05/03 12:44:01;;;;;;;10.75;3.83;;;14.30;99.90;;;;;;5072339;28;20041;-67
2022/05/03 12:46:30;;;;;;;13.55;4.00;;;14.30;99.90;;;;;;5072230;28;20098;-68
2022/05/03 12:48:56;;;;;;;9.02;3.38;;;14.50;99.90;;;;;;5057153;28;20068;-67
2022/05/03 12:51:24;;;;;;;9.55;3.78;;;14.60;99.90;;;;;;5075636;28;20075;-68
2022/05/03 12:53:50;;;;;;;10.18;3.28;;;14.60;99.90;;;;;;5075724;28;20291;-66
2022/05/03 12:59:00;;;;;;;;;;;14.30;99.90;;;;;;5075509;28;20052;-67
2022/05/03 13:01:26;;;;;;;11.02;3.80;;;14.60;99.90;;;;;;5074988;28;19920;-67
2022/05/03 13:03:52;;;;;;;13.93;3.60;;;14.60;99.90;;;;;;5058710;28;20040;-67
2022/05/03 13:06:17;;;;;;;8.57;3.40;;;14.60;99.90;;;;;;5075386;28;20044;-68
2022/05/03 13:08:44;;;;;;;10.60;3.63;;;14.40;99.90;;;;;;5074805;28;20042;-68
2022/05/03 13:11:10;;;;;;;11.85;3.60;;;14.40;99.90;;;;;;5074783;28;20113;-68
2022/05/03 13:13:38;;;;;;;8.55;3.25;;;14.30;99.90;;;;;;5075356;28;20503;-68
2022/05/03 13:16:04;;;;;;;9.88;3.17;;;14.10;99.90;;;;;;5075358;28;20101;-69
2022/05/03 13:18:30;;;;;;;9.23;3.10;;;14.30;99.90;;;;;;5074946;28;20091;-68
2022/05/03 13:20:56;;;;;;;7.53;3.40;;;14.50;99.90;;;;;;5074391;28;20071;-68
2022/05/03 13:23:21;;;;;;;8.60;3.45;;;14.70;99.90;;;;;;5056383;28;20064;-67
2022/05/03 13:25:47;;;;;;;11.38;3.20;;;14.80;99.90;;;;;;5054933;28;20118;-67
2022/05/03 13:28:13;;;;;;;10.20;3.05;;;14.90;99.90;;;;;;5038561;28;20060;-68
2022/05/03 13:30:40;;;;;;;9.55;3.30;;;14.90;99.90;;;;;;5057617;28;20347;-68